sensor_id;sensor_type;location;lat;lon;timestamp;temperature;humidity
17715;DHT22;8977;50.902;4.314;2022-11-03T00:00:22;16.70;99.90
17715;DHT22;8977;50.902;4.314;2022-11-03T00:02:48;16.60;99.90
17715;DHT22;8977;50.902;4.314;2022-11-03T00:05:15;16.60;99.90
17715;DHT22;8977;50.902;4.314;2022-11-03T00:08:01;16.70;99.90
17715;DHT22;8977;50.902;4.314;2022-11-03T00:10:30;16.70;99.90
17715;DHT22;8977;50.902;4.314;2022-11-03T00:12:56;16.70;99.90
17715;DHT22;8977;50.902;4.314;2022-11-03T00:15:23;16.70;99.90
17715;DHT22;8977;50.902;4.314;2022-11-03T00:17:50;16.70;99.90
17715;DHT22;8977;50.902;4.314;2022-11-03T00:20:17;16.70;99.90
17715;DHT22;8977;50.902;4.314;2022-11-03T00:22:44;16.70;99.90
17715;DHT22;8977;50.902;4.314;2022-11-03T00:25:11;16.70;99.90
17715;DHT22;8977;50.902;4.314;2022-11-03T00:27:39;16.60;99.90
17715;DHT22;8977;50.902;4.314;2022-11-03T00:30:06;16.60;99.90
17715;DHT22;8977;50.902;4.314;2022-11-03T00:32:33;16.60;99.90
17715;DHT22;8977;50.902;4.314;2022-11-03T00:35:00;16.60;99.90
17715;DHT22;8977;50.902;4.314;2022-11-03T00:37:27;16.60;99.90
17715;DHT22;8977;50.902;4.314;2022-11-03T00:39:54;16.60;99.90
17715;DHT22;8977;50.902;4.314;2022-11-03T00:42:21;16.70;99.90
17715;DHT22;8977;50.902;4.314;2022-11-03T00:44:49;16.70;99.90
17715;DHT22;8977;50.902;4.314;2022-11-03T00:47:16;16.70;99.90
17715;DHT22;8977;50.902;4.314;2022-11-03T00:49:43;16.60;99.90
17715;DHT22;8977;50.902;4.314;2022-11-03T00:52:09;16.60;99.90
17715;DHT22;8977;50.902;4.314;2022-11-03T00:54:36;16.60;99.90
17715;DHT22;8977;50.902;4.314;2022-11-03T00:57:03;16.60;99.90
17715;DHT22;8977;50.902;4.314;2022-11-03T00:59:30;16.70;99.90
17715;DHT22;8977;50.902;4.314;2022-11-03T01:01:58;16.70;99.90
17715;DHT22;8977;50.902;4.314;2022-11-03T01:04:25;16.60;99.90
17715;DHT22;8977;50.902;4.314;2022-11-03T01:07:09;16.60;99.90
17715;DHT22;8977;50.902;4.314;2022-11-03T01:09:38;16.70;99.90
17715;DHT22;8977;50.902;4.314;2022-11-03T01:12:07;16.60;99.90
17715;DHT22;8977;50.902;4.314;2022-11-03T01:14:35;16.60;99.90
17715;DHT22;8977;50.902;4.314;2022-11-03T01:17:06;16.50;99.90
17715;DHT22;8977;50.902;4.314;2022-11-03T01:19:33;16.60;99.90
17715;DHT22;8977;50.902;4.314;2022-11-03T01:22:00;16.70;99.90
17715;DHT22;8977;50.902;4.314;2022-11-03T01:24:26;16.80;99.90
17715;DHT22;8977;50.902;4.314;2022-11-03T01:26:53;16.70;99.90
17715;DHT22;8977;50.902;4.314;2022-11-03T01:29:20;16.60;99.90
17715;DHT22;8977;50.902;4.314;2022-11-03T01:31:47;16.60;99.90
17715;DHT22;8977;50.902;4.314;2022-11-03T01:34:17;16.60;99.90
17715;DHT22;8977;50.902;4.314;2022-11-03T01:36:45;16.50;99.90
17715;DHT22;8977;50.902;4.314;2022-11-03T01:39:14;16.50;99.90
17715;DHT22;8977;50.902;4.314;2022-11-03T01:41:42;16.60;99.90
17715;DHT22;8977;50.902;4.314;2022-11-03T01:44:30;16.60;99.90
17715;DHT22;8977;50.902;4.314;2022-11-03T01:47:02;16.60;99.90
17715;DHT22;8977;50.902;4.314;2022-11-03T01:49:35;16.50;99.90
17715;DHT22;8977;50.902;4.314;2022-11-03T01:52:07;16.60;99.90
17715;DHT22;8977;50.902;4.314;2022-11-03T01:54:35;16.50;99.90
17715;DHT22;8977;50.902;4.314;2022-11-03T01:57:05;16.60;99.90
17715;DHT22;8977;50.902;4.314;2022-11-03T01:59:34;16.70;99.90
17715;DHT22;8977;50.902;4.314;2022-11-03T02:02:01;16.60;99.90
17715;DHT22;8977;50.902;4.314;2022-11-03T02:04:30;16.50;99.90
17715;DHT22;8977;50.902;4.314;2022-11-03T02:07:05;16.60;99.90
17715;DHT22;8977;50.902;4.314;2022-11-03T02:09:34;16.50;99.90
17715;DHT22;8977;50.902;4.314;2022-11-03T02:12:01;16.50;99.90
17715;DHT22;8977;50.902;4.314;2022-11-03T02:14:36;16.50;99.90
17715;DHT22;8977;50.902;4.314;2022-11-03T02:17:07;16.50;99.90
17715;DHT22;8977;50.902;4.314;2022-11-03T02:19:38;16.60;99.90
17715;DHT22;8977;50.902;4.314;2022-11-03T02:22:20;16.60;99.90
17715;DHT22;8977;50.902;4.314;2022-11-03T02:24:52;16.60;99.90
17715;DHT22;8977;50.902;4.314;2022-11-03T02:27:22;16.60;99.90
17715;DHT22;8977;50.902;4.314;2022-11-03T02:29:49;16.50;99.90
17715;DHT22;8977;50.902;4.314;2022-11-03T02:32:20;16.50;99.90
17715;DHT22;8977;50.902;4.314;2022-11-03T02:34:51;16.60;99.90
17715;DHT22;8977;50.902;4.314;2022-11-03T02:37:21;16.60;99.90
17715;DHT22;8977;50.902;4.314;2022-11-03T02:39:53;16.40;99.90
17715;DHT22;8977;50.902;4.314;2022-11-03T02:42:24;16.50;99.90
17715;DHT22;8977;50.902;4.314;2022-11-03T02:44:52;16.50;99.90
17715;DHT22;8977;50.902;4.314;2022-11-03T02:47:20;16.50;99.90
17715;DHT22;8977;50.902;4.314;2022-11-03T02:49:50;16.50;99.90
17715;DHT22;8977;50.902;4.314;2022-11-03T02:52:37;16.50;99.90
17715;DHT22;8977;50.902;4.314;2022-11-03T02:55:09;16.60;99.90
17715;DHT22;8977;50.902;4.314;2022-11-03T02:57:44;16.50;99.90
17715;DHT22;8977;50.902;4.314;2022-11-03T03:00:12;16.50;99.90
17715;DHT22;8977;50.902;4.314;2022-11-03T03:02:50;16.60;99.90
17715;DHT22;8977;50.902;4.314;2022-11-03T03:05:21;16.60;99.90
17715;DHT22;8977;50.902;4.314;2022-11-03T03:07:50;16.60;99.90
17715;DHT22;8977;50.902;4.314;2022-11-03T03:10:19;16.50;99.90
17715;DHT22;8977;50.902;4.314;2022-11-03T03:12:50;16.50;99.90
17715;DHT22;8977;50.902;4.314;2022-11-03T03:15:20;16.60;99.90
17715;DHT22;8977;50.902;4.314;2022-11-03T03:17:50;16.50;99.90
17715;DHT22;8977;50.902;4.314;2022-11-03T03:20:23;16.60;99.90
17715;DHT22;8977;50.902;4.314;2022-11-03T03:22:56;16.60;99.90
17715;DHT22;8977;50.902;4.314;2022-11-03T03:25:27;16.60;99.90
17715;DHT22;8977;50.902;4.314;2022-11-03T03:27:59;16.50;99.90
17715;DHT22;8977;50.902;4.314;2022-11-03T03:30:30;16.50;99.90
17715;DHT22;8977;50.902;4.314;2022-11-03T03:32:59;16.50;99.90
17715;DHT22;8977;50.902;4.314;2022-11-03T03:35:28;16.60;99.90
17715;DHT22;8977;50.902;4.314;2022-11-03T03:38:00;16.60;99.90
17715;DHT22;8977;50.902;4.314;2022-11-03T03:40:30;16.50;99.90
17715;DHT22;8977;50.902;4.314;2022-11-03T03:43:00;16.50;99.90
17715;DHT22;8977;50.902;4.314;2022-11-03T03:45:29;16.50;99.90
17715;DHT22;8977;50.902;4.314;2022-11-03T03:47:57;16.50;99.90
17715;DHT22;8977;50.902;4.314;2022-11-03T03:50:26;16.50;99.90
17715;DHT22;8977;50.902;4.314;2022-11-03T03:52:56;16.50;99.90
17715;DHT22;8977;50.902;4.314;2022-11-03T03:55:32;16.60;99.90
17715;DHT22;8977;50.902;4.314;2022-11-03T03:58:01;16.60;99.90
17715;DHT22;8977;50.902;4.314;2022-11-03T04:00:28;16.60;99.90
17715;DHT22;8977;50.902;4.314;2022-11-03T04:02:56;16.60;99.90
17715;DHT22;8977;50.902;4.314;2022-11-03T04:05:23;16.50;99.90
17715;DHT22;8977;50.902;4.314;2022-11-03T04:07:51;16.60;99.90
17715;DHT22;8977;50.902;4.314;2022-11-03T04:10:21;16.60;99.90
17715;DHT22;8977;50.902;4.314;2022-11-03T04:12:48;16.60;99.90
17715;DHT22;8977;50.902;4.314;2022-11-03T04:15:35;16.60;99.90
17715;DHT22;8977;50.902;4.314;2022-11-03T04:18:20;16.60;99.90
17715;DHT22;8977;50.902;4.314;2022-11-03T04:21:05;16.60;99.90
17715;DHT22;8977;50.902;4.314;2022-11-03T04:23:50;16.60;99.90
17715;DHT22;8977;50.902;4.314;2022-11-03T04:26:18;16.60;99.90
17715;DHT22;8977;50.902;4.314;2022-11-03T04:28:47;16.60;99.90
17715;DHT22;8977;50.902;4.314;2022-11-03T04:31:17;16.60;99.90
17715;DHT22;8977;50.902;4.314;2022-11-03T04:33:44;16.60;99.90
17715;DHT22;8977;50.902;4.314;2022-11-03T04:36:14;16.60;99.90
17715;DHT22;8977;50.902;4.314;2022-11-03T04:38:42;16.60;99.90
17715;DHT22;8977;50.902;4.314;2022-11-03T04:41:14;16.60;99.90
17715;DHT22;8977;50.902;4.314;2022-11-03T04:43:41;16.70;99.90
17715;DHT22;8977;50.902;4.314;2022-11-03T04:46:10;16.60;99.90
17715;DHT22;8977;50.902;4.314;2022-11-03T04:48:39;16.70;99.90
17715;DHT22;8977;50.902;4.314;2022-11-03T04:51:13;16.70;99.90
17715;DHT22;8977;50.902;4.314;2022-11-03T04:53:45;16.70;99.90
17715;DHT22;8977;50.902;4.314;2022-11-03T04:56:15;16.60;99.90
17715;DHT22;8977;50.902;4.314;2022-11-03T04:58:43;16.60;99.90
17715;DHT22;8977;50.902;4.314;2022-11-03T05:01:13;16.60;99.90
17715;DHT22;8977;50.902;4.314;2022-11-03T05:03:42;16.70;99.90
17715;DHT22;8977;50.902;4.314;2022-11-03T05:06:13;16.70;99.90
17715;DHT22;8977;50.902;4.314;2022-11-03T05:08:41;16.70;99.90
17715;DHT22;8977;50.902;4.314;2022-11-03T05:11:14;16.70;99.90
17715;DHT22;8977;50.902;4.314;2022-11-03T05:13:42;16.70;99.90
17715;DHT22;8977;50.902;4.314;2022-11-03T05:16:10;16.70;99.90
17715;DHT22;8977;50.902;4.314;2022-11-03T05:18:38;16.60;99.90
17715;DHT22;8977;50.902;4.314;2022-11-03T05:21:10;16.60;99.90
17715;DHT22;8977;50.902;4.314;2022-11-03T05:23:39;16.70;99.90
17715;DHT22;8977;50.902;4.314;2022-11-03T05:26:13;16.70;99.90
17715;DHT22;8977;50.902;4.314;2022-11-03T05:28:43;16.70;99.90
17715;DHT22;8977;50.902;4.314;2022-11-03T05:31:19;16.70;99.90
17715;DHT22;8977;50.902;4.314;2022-11-03T05:33:47;16.70;99.90
17715;DHT22;8977;50.902;4.314;2022-11-03T05:36:19;16.70;99.90
17715;DHT22;8977;50.902;4.314;2022-11-03T05:38:46;16.70;99.90
17715;DHT22;8977;50.902;4.314;2022-11-03T05:41:18;16.70;99.90
17715;DHT22;8977;50.902;4.314;2022-11-03T05:43:54;16.70;99.90
17715;DHT22;8977;50.902;4.314;2022-11-03T05:46:23;16.70;99.90
17715;DHT22;8977;50.902;4.314;2022-11-03T05:48:50;16.70;99.90
17715;DHT22;8977;50.902;4.314;2022-11-03T05:51:21;16.70;99.90
17715;DHT22;8977;50.902;4.314;2022-11-03T05:53:51;16.70;99.90
17715;DHT22;8977;50.902;4.314;2022-11-03T05:56:21;16.70;99.90
17715;DHT22;8977;50.902;4.314;2022-11-03T05:58:51;16.60;99.90
17715;DHT22;8977;50.902;4.314;2022-11-03T06:01:21;16.70;99.90
17715;DHT22;8977;50.902;4.314;2022-11-03T06:03:49;16.70;99.90
17715;DHT22;8977;50.902;4.314;2022-11-03T06:06:21;16.70;99.90
17715;DHT22;8977;50.902;4.314;2022-11-03T06:08:49;16.70;99.90
17715;DHT22;8977;50.902;4.314;2022-11-03T06:11:25;16.70;99.90
17715;DHT22;8977;50.902;4.314;2022-11-03T06:13:55;16.70;99.90
17715;DHT22;8977;50.902;4.314;2022-11-03T06:16:37;16.70;99.90
17715;DHT22;8977;50.902;4.314;2022-11-03T06:19:22;16.70;99.90
17715;DHT22;8977;50.902;4.314;2022-11-03T06:21:54;16.70;99.90
17715;DHT22;8977;50.902;4.314;2022-11-03T06:24:25;16.60;99.90
17715;DHT22;8977;50.902;4.314;2022-11-03T06:26:52;16.60;99.90
17715;DHT22;8977;50.902;4.314;2022-11-03T06:29:20;16.60;99.90
17715;DHT22;8977;50.902;4.314;2022-11-03T06:31:49;16.70;99.90
17715;DHT22;8977;50.902;4.314;2022-11-03T06:34:32;16.70;99.90
17715;DHT22;8977;50.902;4.314;2022-11-03T06:37:09;16.70;99.90
17715;DHT22;8977;50.902;4.314;2022-11-03T06:39:38;16.70;99.90
17715;DHT22;8977;50.902;4.314;2022-11-03T06:42:12;16.60;99.90
17715;DHT22;8977;50.902;4.314;2022-11-03T06:44:40;16.60;99.90
17715;DHT22;8977;50.902;4.314;2022-11-03T06:47:18;16.60;99.90
17715;DHT22;8977;50.902;4.314;2022-11-03T06:49:45;16.60;99.90
17715;DHT22;8977;50.902;4.314;2022-11-03T06:52:27;16.60;99.90
17715;DHT22;8977;50.902;4.314;2022-11-03T06:55:01;16.60;99.90
17715;DHT22;8977;50.902;4.314;2022-11-03T06:57:36;16.60;99.90
17715;DHT22;8977;50.902;4.314;2022-11-03T07:00:10;16.60;99.90
17715;DHT22;8977;50.902;4.314;2022-11-03T07:02:52;16.70;99.90
17715;DHT22;8977;50.902;4.314;2022-11-03T07:05:21;16.70;99.90
17715;DHT22;8977;50.902;4.314;2022-11-03T07:07:52;16.60;99.90
17715;DHT22;8977;50.902;4.314;2022-11-03T07:10:22;16.60;99.90
17715;DHT22;8977;50.902;4.314;2022-11-03T07:12:50;16.60;99.90
17715;DHT22;8977;50.902;4.314;2022-11-03T07:15:25;16.70;99.90
17715;DHT22;8977;50.902;4.314;2022-11-03T07:17:53;16.60;99.90
17715;DHT22;8977;50.902;4.314;2022-11-03T07:20:20;16.60;99.90
17715;DHT22;8977;50.902;4.314;2022-11-03T07:22:49;16.60;99.90
17715;DHT22;8977;50.902;4.314;2022-11-03T07:25:18;16.60;99.90
17715;DHT22;8977;50.902;4.314;2022-11-03T07:27:48;16.70;99.90
17715;DHT22;8977;50.902;4.314;2022-11-03T07:30:19;16.60;99.90
17715;DHT22;8977;50.902;4.314;2022-11-03T07:32:47;16.60;99.90
17715;DHT22;8977;50.902;4.314;2022-11-03T07:35:25;16.60;99.90
17715;DHT22;8977;50.902;4.314;2022-11-03T07:37:56;16.60;99.90
17715;DHT22;8977;50.902;4.314;2022-11-03T07:40:25;16.70;99.90
17715;DHT22;8977;50.902;4.314;2022-11-03T07:42:56;16.70;99.90
17715;DHT22;8977;50.902;4.314;2022-11-03T07:45:34;16.60;99.90
17715;DHT22;8977;50.902;4.314;2022-11-03T07:48:19;16.70;99.90
17715;DHT22;8977;50.902;4.314;2022-11-03T07:50:46;16.70;99.90
17715;DHT22;8977;50.902;4.314;2022-11-03T07:53:19;16.60;99.90
17715;DHT22;8977;50.902;4.314;2022-11-03T07:55:46;16.60;99.90
17715;DHT22;8977;50.902;4.314;2022-11-03T07:58:30;16.70;99.90
17715;DHT22;8977;50.902;4.314;2022-11-03T08:00:58;16.70;99.90
17715;DHT22;8977;50.902;4.314;2022-11-03T08:03:40;16.70;99.90
17715;DHT22;8977;50.902;4.314;2022-11-03T08:06:07;16.70;99.90
17715;DHT22;8977;50.902;4.314;2022-11-03T08:08:36;16.70;99.90
17715;DHT22;8977;50.902;4.314;2022-11-03T08:11:03;16.70;99.90
17715;DHT22;8977;50.902;4.314;2022-11-03T08:13:30;16.70;99.90
17715;DHT22;8977;50.902;4.314;2022-11-03T08:15:57;16.70;99.90
17715;DHT22;8977;50.902;4.314;2022-11-03T08:18:24;16.70;99.90
17715;DHT22;8977;50.902;4.314;2022-11-03T08:20:50;16.70;99.90
17715;DHT22;8977;50.902;4.314;2022-11-03T08:23:17;16.70;99.90
17715;DHT22;8977;50.902;4.314;2022-11-03T08:25:45;16.70;99.90
17715;DHT22;8977;50.902;4.314;2022-11-03T08:28:12;16.70;99.90
17715;DHT22;8977;50.902;4.314;2022-11-03T08:30:39;16.70;99.90
17715;DHT22;8977;50.902;4.314;2022-11-03T08:33:06;16.70;99.90
17715;DHT22;8977;50.902;4.314;2022-11-03T08:35:33;16.70;99.90
17715;DHT22;8977;50.902;4.314;2022-11-03T08:37:59;16.70;99.90
17715;DHT22;8977;50.902;4.314;2022-11-03T08:40:26;16.70;99.90
17715;DHT22;8977;50.902;4.314;2022-11-03T08:42:54;16.70;99.90
17715;DHT22;8977;50.902;4.314;2022-11-03T08:45:21;16.70;99.90
17715;DHT22;8977;50.902;4.314;2022-11-03T08:47:48;16.70;99.90
17715;DHT22;8977;50.902;4.314;2022-11-03T08:50:15;16.70;99.90
17715;DHT22;8977;50.902;4.314;2022-11-03T08:52:42;16.60;99.90
17715;DHT22;8977;50.902;4.314;2022-11-03T08:55:09;16.70;99.90
17715;DHT22;8977;50.902;4.314;2022-11-03T08:57:35;16.60;99.90
17715;DHT22;8977;50.902;4.314;2022-11-03T09:00:05;16.60;99.90
17715;DHT22;8977;50.902;4.314;2022-11-03T09:02:33;16.60;99.90
17715;DHT22;8977;50.902;4.314;2022-11-03T09:05:00;16.60;99.90
17715;DHT22;8977;50.902;4.314;2022-11-03T09:07:28;16.60;99.90
17715;DHT22;8977;50.902;4.314;2022-11-03T09:09:54;16.60;99.90
17715;DHT22;8977;50.902;4.314;2022-11-03T09:12:21;16.60;99.90
17715;DHT22;8977;50.902;4.314;2022-11-03T09:14:48;16.60;99.90
17715;DHT22;8977;50.902;4.314;2022-11-03T09:17:16;16.60;99.90
17715;DHT22;8977;50.902;4.314;2022-11-03T09:19:43;16.60;99.90
17715;DHT22;8977;50.902;4.314;2022-11-03T09:22:10;16.60;99.90
17715;DHT22;8977;50.902;4.314;2022-11-03T09:24:37;16.60;99.90
17715;DHT22;8977;50.902;4.314;2022-11-03T09:27:03;16.60;99.90
17715;DHT22;8977;50.902;4.314;2022-11-03T09:29:30;16.70;99.90
17715;DHT22;8977;50.902;4.314;2022-11-03T09:31:57;16.70;99.90
17715;DHT22;8977;50.902;4.314;2022-11-03T09:34:25;16.80;99.90
17715;DHT22;8977;50.902;4.314;2022-11-03T09:36:53;16.80;99.90
17715;DHT22;8977;50.902;4.314;2022-11-03T09:39:20;16.80;99.90
17715;DHT22;8977;50.902;4.314;2022-11-03T09:41:47;16.90;99.90
17715;DHT22;8977;50.902;4.314;2022-11-03T09:44:14;16.90;99.90
17715;DHT22;8977;50.902;4.314;2022-11-03T09:46:41;16.90;99.90
17715;DHT22;8977;50.902;4.314;2022-11-03T09:49:12;16.90;99.90
17715;DHT22;8977;50.902;4.314;2022-11-03T09:51:41;17.00;99.90
17715;DHT22;8977;50.902;4.314;2022-11-03T09:54:12;17.00;99.90
17715;DHT22;8977;50.902;4.314;2022-11-03T09:56:39;17.00;99.90
17715;DHT22;8977;50.902;4.314;2022-11-03T09:59:13;17.10;99.90
17715;DHT22;8977;50.902;4.314;2022-11-03T10:01:42;17.10;99.90
17715;DHT22;8977;50.902;4.314;2022-11-03T10:04:10;17.10;99.90
17715;DHT22;8977;50.902;4.314;2022-11-03T10:06:38;17.10;99.90
17715;DHT22;8977;50.902;4.314;2022-11-03T10:09:10;17.10;99.90
17715;DHT22;8977;50.902;4.314;2022-11-03T10:11:40;17.20;99.90
17715;DHT22;8977;50.902;4.314;2022-11-03T10:14:10;17.20;99.90
17715;DHT22;8977;50.902;4.314;2022-11-03T10:16:40;17.20;99.90
17715;DHT22;8977;50.902;4.314;2022-11-03T10:19:08;17.20;99.90
17715;DHT22;8977;50.902;4.314;2022-11-03T10:21:35;17.20;99.90
17715;DHT22;8977;50.902;4.314;2022-11-03T10:24:03;17.20;99.90
17715;DHT22;8977;50.902;4.314;2022-11-03T10:26:42;17.20;99.90
17715;DHT22;8977;50.902;4.314;2022-11-03T10:29:16;17.20;99.90
17715;DHT22;8977;50.902;4.314;2022-11-03T10:31:47;17.20;99.90
17715;DHT22;8977;50.902;4.314;2022-11-03T10:34:31;17.20;99.90
17715;DHT22;8977;50.902;4.314;2022-11-03T10:37:22;17.20;99.90
17715;DHT22;8977;50.902;4.314;2022-11-03T10:39:51;17.20;99.90
17715;DHT22;8977;50.902;4.314;2022-11-03T10:42:21;17.20;99.90
17715;DHT22;8977;50.902;4.314;2022-11-03T10:44:51;17.30;99.90
17715;DHT22;8977;50.902;4.314;2022-11-03T10:47:30;17.30;99.90
17715;DHT22;8977;50.902;4.314;2022-11-03T10:49:58;17.30;99.90
17715;DHT22;8977;50.902;4.314;2022-11-03T10:52:26;17.30;99.90
17715;DHT22;8977;50.902;4.314;2022-11-03T10:54:56;17.30;99.90
17715;DHT22;8977;50.902;4.314;2022-11-03T10:57:25;17.30;99.90
17715;DHT22;8977;50.902;4.314;2022-11-03T10:59:53;17.40;99.90
17715;DHT22;8977;50.902;4.314;2022-11-03T11:02:21;17.40;99.90
17715;DHT22;8977;50.902;4.314;2022-11-03T11:04:53;17.40;99.90
17715;DHT22;8977;50.902;4.314;2022-11-03T11:07:25;17.40;99.90
17715;DHT22;8977;50.902;4.314;2022-11-03T11:09:54;17.40;99.90
17715;DHT22;8977;50.902;4.314;2022-11-03T11:12:22;17.40;99.90
17715;DHT22;8977;50.902;4.314;2022-11-03T11:14:55;17.50;99.90
17715;DHT22;8977;50.902;4.314;2022-11-03T11:17:42;17.50;99.90
17715;DHT22;8977;50.902;4.314;2022-11-03T11:20:32;17.50;99.90
17715;DHT22;8977;50.902;4.314;2022-11-03T11:26:30;17.50;99.90
17715;DHT22;8977;50.902;4.314;2022-11-03T11:39:00;17.60;99.90
17715;DHT22;8977;50.902;4.314;2022-11-03T11:42:10;17.60;99.90
17715;DHT22;8977;50.902;4.314;2022-11-03T11:44:57;17.60;99.90
17715;DHT22;8977;50.902;4.314;2022-11-03T11:47:47;17.70;99.90
17715;DHT22;8977;50.902;4.314;2022-11-03T11:50:30;17.70;99.90
17715;DHT22;8977;50.902;4.314;2022-11-03T11:53:09;17.70;99.90
17715;DHT22;8977;50.902;4.314;2022-11-03T11:55:40;17.80;99.90
17715;DHT22;8977;50.902;4.314;2022-11-03T11:58:16;17.80;99.90
17715;DHT22;8977;50.902;4.314;2022-11-03T12:00:53;17.80;99.90
17715;DHT22;8977;50.902;4.314;2022-11-03T12:03:29;17.80;99.90
17715;DHT22;8977;50.902;4.314;2022-11-03T12:05:57;17.80;99.90
17715;DHT22;8977;50.902;4.314;2022-11-03T12:08:26;17.80;99.90
17715;DHT22;8977;50.902;4.314;2022-11-03T12:10:58;17.80;99.90
17715;DHT22;8977;50.902;4.314;2022-11-03T12:13:46;17.80;99.90
17715;DHT22;8977;50.902;4.314;2022-11-03T12:16:26;17.80;99.90
17715;DHT22;8977;50.902;4.314;2022-11-03T12:18:53;17.80;99.90
17715;DHT22;8977;50.902;4.314;2022-11-03T12:21:46;17.80;99.90
17715;DHT22;8977;50.902;4.314;2022-11-03T12:24:33;17.80;99.90
17715;DHT22;8977;50.902;4.314;2022-11-03T12:27:02;17.80;99.90
17715;DHT22;8977;50.902;4.314;2022-11-03T12:29:29;17.80;99.90
17715;DHT22;8977;50.902;4.314;2022-11-03T12:31:56;17.80;99.90
17715;DHT22;8977;50.902;4.314;2022-11-03T12:34:22;17.80;99.90
17715;DHT22;8977;50.902;4.314;2022-11-03T12:36:50;17.70;99.90
17715;DHT22;8977;50.902;4.314;2022-11-03T12:39:17;17.70;99.90
17715;DHT22;8977;50.902;4.314;2022-11-03T12:41:44;17.80;99.90
17715;DHT22;8977;50.902;4.314;2022-11-03T12:44:11;17.80;99.90
17715;DHT22;8977;50.902;4.314;2022-11-03T12:46:38;17.70;99.90
17715;DHT22;8977;50.902;4.314;2022-11-03T12:49:04;17.80;99.90
17715;DHT22;8977;50.902;4.314;2022-11-03T12:51:31;17.70;99.90
17715;DHT22;8977;50.902;4.314;2022-11-03T12:53:59;17.70;99.90
17715;DHT22;8977;50.902;4.314;2022-11-03T12:56:26;17.70;99.90
17715;DHT22;8977;50.902;4.314;2022-11-03T12:58:53;17.60;99.90
17715;DHT22;8977;50.902;4.314;2022-11-03T13:01:20;17.60;99.90
17715;DHT22;8977;50.902;4.314;2022-11-03T13:03:46;17.50;99.90
17715;DHT22;8977;50.902;4.314;2022-11-03T13:06:13;17.60;99.90
17715;DHT22;8977;50.902;4.314;2022-11-03T13:08:40;17.60;99.90
17715;DHT22;8977;50.902;4.314;2022-11-03T13:11:08;17.50;99.90
17715;DHT22;8977;50.902;4.314;2022-11-03T13:13:49;17.50;99.90
17715;DHT22;8977;50.902;4.314;2022-11-03T13:16:16;17.50;99.90
17715;DHT22;8977;50.902;4.314;2022-11-03T13:18:43;17.50;99.90
17715;DHT22;8977;50.902;4.314;2022-11-03T13:21:09;17.40;99.90
17715;DHT22;8977;50.902;4.314;2022-11-03T13:23:37;17.40;99.90
17715;DHT22;8977;50.902;4.314;2022-11-03T13:26:04;17.40;99.90
17715;DHT22;8977;50.902;4.314;2022-11-03T13:28:33;17.50;99.90
17715;DHT22;8977;50.902;4.314;2022-11-03T13:30:59;17.40;99.90
17715;DHT22;8977;50.902;4.314;2022-11-03T13:33:26;17.40;99.90
17715;DHT22;8977;50.902;4.314;2022-11-03T13:35:53;17.40;99.90
17715;DHT22;8977;50.902;4.314;2022-11-03T13:38:20;17.30;99.90
17715;DHT22;8977;50.902;4.314;2022-11-03T13:40:47;17.40;99.90
17715;DHT22;8977;50.902;4.314;2022-11-03T13:43:13;17.30;99.90
17715;DHT22;8977;50.902;4.314;2022-11-03T13:45:41;17.40;99.90
17715;DHT22;8977;50.902;4.314;2022-11-03T13:48:08;17.30;99.90
17715;DHT22;8977;50.902;4.314;2022-11-03T13:50:35;17.40;99.90
17715;DHT22;8977;50.902;4.314;2022-11-03T13:53:02;17.40;99.90
17715;DHT22;8977;50.902;4.314;2022-11-03T13:55:29;17.20;99.90
17715;DHT22;8977;50.902;4.314;2022-11-03T13:57:55;17.30;99.90
17715;DHT22;8977;50.902;4.314;2022-11-03T14:00:22;17.30;99.90
17715;DHT22;8977;50.902;4.314;2022-11-03T14:02:50;17.20;99.90
17715;DHT22;8977;50.902;4.314;2022-11-03T14:05:17;17.20;99.90
17715;DHT22;8977;50.902;4.314;2022-11-03T14:07:44;17.20;99.90
17715;DHT22;8977;50.902;4.314;2022-11-03T14:10:11;17.20;99.90
17715;DHT22;8977;50.902;4.314;2022-11-03T14:12:38;17.20;99.90
17715;DHT22;8977;50.902;4.314;2022-11-03T14:15:05;17.20;99.90
17715;DHT22;8977;50.902;4.314;2022-11-03T14:17:33;17.30;99.90
17715;DHT22;8977;50.902;4.314;2022-11-03T14:20:02;17.30;99.90
17715;DHT22;8977;50.902;4.314;2022-11-03T14:22:29;17.30;99.90
17715;DHT22;8977;50.902;4.314;2022-11-03T14:24:56;17.30;99.90
17715;DHT22;8977;50.902;4.314;2022-11-03T14:27:23;17.20;99.90
17715;DHT22;8977;50.902;4.314;2022-11-03T14:29:49;17.30;99.90
17715;DHT22;8977;50.902;4.314;2022-11-03T14:32:17;17.20;99.90
17715;DHT22;8977;50.902;4.314;2022-11-03T14:34:44;17.20;99.90
17715;DHT22;8977;50.902;4.314;2022-11-03T14:37:13;17.20;99.90
17715;DHT22;8977;50.902;4.314;2022-11-03T14:39:40;17.20;99.90
17715;DHT22;8977;50.902;4.314;2022-11-03T14:42:09;17.10;99.90
17715;DHT22;8977;50.902;4.314;2022-11-03T14:44:39;17.10;99.90
17715;DHT22;8977;50.902;4.314;2022-11-03T14:47:08;17.20;99.90
17715;DHT22;8977;50.902;4.314;2022-11-03T14:49:35;17.20;99.90
17715;DHT22;8977;50.902;4.314;2022-11-03T14:52:04;17.10;99.90
17715;DHT22;8977;50.902;4.314;2022-11-03T14:54:33;17.10;99.90
17715;DHT22;8977;50.902;4.314;2022-11-03T14:57:00;17.10;99.90
17715;DHT22;8977;50.902;4.314;2022-11-03T14:59:27;17.10;99.90
17715;DHT22;8977;50.902;4.314;2022-11-03T15:01:55;17.20;99.90
17715;DHT22;8977;50.902;4.314;2022-11-03T15:04:22;17.10;99.90
17715;DHT22;8977;50.902;4.314;2022-11-03T15:06:49;17.10;99.90
17715;DHT22;8977;50.902;4.314;2022-11-03T15:09:16;17.10;99.90
17715;DHT22;8977;50.902;4.314;2022-11-03T15:11:45;17.10;99.90
17715;DHT22;8977;50.902;4.314;2022-11-03T15:14:12;17.10;99.90
17715;DHT22;8977;50.902;4.314;2022-11-03T15:16:39;17.10;99.90
17715;DHT22;8977;50.902;4.314;2022-11-03T15:19:07;17.20;99.90
17715;DHT22;8977;50.902;4.314;2022-11-03T15:21:34;17.10;99.90
17715;DHT22;8977;50.902;4.314;2022-11-03T15:24:00;17.10;99.90
17715;DHT22;8977;50.902;4.314;2022-11-03T15:26:28;17.00;99.90
17715;DHT22;8977;50.902;4.314;2022-11-03T15:28:56;17.00;99.90
17715;DHT22;8977;50.902;4.314;2022-11-03T15:31:23;17.00;99.90
17715;DHT22;8977;50.902;4.314;2022-11-03T15:33:49;17.00;99.90
17715;DHT22;8977;50.902;4.314;2022-11-03T15:36:16;16.90;99.90
17715;DHT22;8977;50.902;4.314;2022-11-03T15:38:43;16.90;99.90
17715;DHT22;8977;50.902;4.314;2022-11-03T15:41:10;16.90;99.90
17715;DHT22;8977;50.902;4.314;2022-11-03T15:43:44;16.90;99.90
17715;DHT22;8977;50.902;4.314;2022-11-03T15:46:13;16.90;99.90
17715;DHT22;8977;50.902;4.314;2022-11-03T15:48:40;16.90;99.90
17715;DHT22;8977;50.902;4.314;2022-11-03T15:51:07;16.90;99.90
17715;DHT22;8977;50.902;4.314;2022-11-03T15:53:34;16.80;99.90
17715;DHT22;8977;50.902;4.314;2022-11-03T15:56:01;16.80;99.90
17715;DHT22;8977;50.902;4.314;2022-11-03T15:58:28;16.80;99.90
17715;DHT22;8977;50.902;4.314;2022-11-03T16:00:58;16.80;99.90
17715;DHT22;8977;50.902;4.314;2022-11-03T16:03:26;16.80;99.90
17715;DHT22;8977;50.902;4.314;2022-11-03T16:05:53;16.80;99.90
17715;DHT22;8977;50.902;4.314;2022-11-03T16:08:20;16.80;99.90
17715;DHT22;8977;50.902;4.314;2022-11-03T16:10:46;16.80;99.90
17715;DHT22;8977;50.902;4.314;2022-11-03T16:13:13;16.70;99.90
17715;DHT22;8977;50.902;4.314;2022-11-03T16:15:40;16.70;99.90